sensor_id;sensor_type;location;lat;lon;timestamp;temperature;humidity
19567;DHT22;9930;49.240;8.548;2023-07-29T00:01:24;21.60;87.50
19567;DHT22;9930;49.240;8.548;2023-07-29T00:03:50;21.60;87.60
19567;DHT22;9930;49.240;8.548;2023-07-29T00:06:15;21.50;87.70
19567;DHT22;9930;49.240;8.548;2023-07-29T00:08:43;21.50;87.80
19567;DHT22;9930;49.240;8.548;2023-07-29T00:11:09;21.50;87.90
19567;DHT22;9930;49.240;8.548;2023-07-29T00:13:36;21.50;87.90
19567;DHT22;9930;49.240;8.548;2023-07-29T00:16:02;21.60;88.10
19567;DHT22;9930;49.240;8.548;2023-07-29T00:18:28;21.50;88.00
19567;DHT22;9930;49.240;8.548;2023-07-29T00:20:56;21.60;88.10
19567;DHT22;9930;49.240;8.548;2023-07-29T00:23:24;21.60;88.00
19567;DHT22;9930;49.240;8.548;2023-07-29T00:25:50;21.50;87.90
19567;DHT22;9930;49.240;8.548;2023-07-29T00:28:16;21.60;87.90
19567;DHT22;9930;49.240;8.548;2023-07-29T00:30:43;21.60;87.80
19567;DHT22;9930;49.240;8.548;2023-07-29T00:33:10;21.60;87.80
19567;DHT22;9930;49.240;8.548;2023-07-29T00:35:36;21.50;87.70
19567;DHT22;9930;49.240;8.548;2023-07-29T00:38:04;21.60;87.80
19567;DHT22;9930;49.240;8.548;2023-07-29T00:40:30;21.50;87.70
19567;DHT22;9930;49.240;8.548;2023-07-29T00:43:01;21.50;87.70
19567;DHT22;9930;49.240;8.548;2023-07-29T00:45:27;21.50;87.70
19567;DHT22;9930;49.240;8.548;2023-07-29T00:47:54;21.50;87.70
19567;DHT22;9930;49.240;8.548;2023-07-29T00:50:22;21.50;87.60
19567;DHT22;9930;49.240;8.548;2023-07-29T00:52:49;21.50;87.70
19567;DHT22;9930;49.240;8.548;2023-07-29T00:55:15;21.50;87.60
19567;DHT22;9930;49.240;8.548;2023-07-29T00:57:44;21.40;87.60
19567;DHT22;9930;49.240;8.548;2023-07-29T01:00:14;21.50;87.70
19567;DHT22;9930;49.240;8.548;2023-07-29T01:02:45;21.40;87.80
19567;DHT22;9930;49.240;8.548;2023-07-29T01:05:13;21.40;87.90
19567;DHT22;9930;49.240;8.548;2023-07-29T01:08:00;21.40;88.00
19567;DHT22;9930;49.240;8.548;2023-07-29T01:11:07;21.40;88.20
19567;DHT22;9930;49.240;8.548;2023-07-29T01:13:44;21.40;88.30
19567;DHT22;9930;49.240;8.548;2023-07-29T01:16:44;21.40;88.20
19567;DHT22;9930;49.240;8.548;2023-07-29T01:19:42;21.40;88.40
19567;DHT22;9930;49.240;8.548;2023-07-29T01:22:36;21.40;88.50
19567;DHT22;9930;49.240;8.548;2023-07-29T01:25:05;21.40;88.20
19567;DHT22;9930;49.240;8.548;2023-07-29T01:27:31;21.40;88.00
19567;DHT22;9930;49.240;8.548;2023-07-29T01:29:58;21.40;87.80
19567;DHT22;9930;49.240;8.548;2023-07-29T01:32:46;21.40;87.70
19567;DHT22;9930;49.240;8.548;2023-07-29T01:38:17;21.30;87.90
19567;DHT22;9930;49.240;8.548;2023-07-29T01:40:45;21.30;88.00
19567;DHT22;9930;49.240;8.548;2023-07-29T01:43:14;21.40;87.90
19567;DHT22;9930;49.240;8.548;2023-07-29T01:45:44;21.40;88.00
19567;DHT22;9930;49.240;8.548;2023-07-29T01:48:10;21.30;87.90
19567;DHT22;9930;49.240;8.548;2023-07-29T01:50:36;21.30;87.80
19567;DHT22;9930;49.240;8.548;2023-07-29T01:53:07;21.30;87.80
19567;DHT22;9930;49.240;8.548;2023-07-29T01:55:35;21.30;87.80
19567;DHT22;9930;49.240;8.548;2023-07-29T01:58:00;21.30;87.80
19567;DHT22;9930;49.240;8.548;2023-07-29T02:00:26;21.30;87.80
19567;DHT22;9930;49.240;8.548;2023-07-29T02:02:51;21.30;87.80
19567;DHT22;9930;49.240;8.548;2023-07-29T02:05:17;21.30;87.80
19567;DHT22;9930;49.240;8.548;2023-07-29T02:07:45;21.20;87.80
19567;DHT22;9930;49.240;8.548;2023-07-29T02:10:13;21.20;88.70
19567;DHT22;9930;49.240;8.548;2023-07-29T02:12:43;21.20;88.20
19567;DHT22;9930;49.240;8.548;2023-07-29T02:15:11;21.20;88.30
19567;DHT22;9930;49.240;8.548;2023-07-29T02:17:40;21.20;88.40
19567;DHT22;9930;49.240;8.548;2023-07-29T02:20:07;21.20;88.30
19567;DHT22;9930;49.240;8.548;2023-07-29T02:22:33;21.20;88.30
19567;DHT22;9930;49.240;8.548;2023-07-29T02:24:59;21.20;88.40
19567;DHT22;9930;49.240;8.548;2023-07-29T02:27:26;21.20;88.50
19567;DHT22;9930;49.240;8.548;2023-07-29T02:29:53;21.20;88.60
19567;DHT22;9930;49.240;8.548;2023-07-29T02:32:19;21.20;88.60
19567;DHT22;9930;49.240;8.548;2023-07-29T02:34:46;21.20;88.60
19567;DHT22;9930;49.240;8.548;2023-07-29T02:37:11;21.20;88.50
19567;DHT22;9930;49.240;8.548;2023-07-29T02:39:37;21.20;88.40
19567;DHT22;9930;49.240;8.548;2023-07-29T02:42:05;21.20;88.50
19567;DHT22;9930;49.240;8.548;2023-07-29T02:44:31;21.20;88.50
19567;DHT22;9930;49.240;8.548;2023-07-29T02:46:57;21.20;88.60
19567;DHT22;9930;49.240;8.548;2023-07-29T02:49:23;21.20;88.60
19567;DHT22;9930;49.240;8.548;2023-07-29T02:51:51;21.20;88.60
19567;DHT22;9930;49.240;8.548;2023-07-29T02:54:17;21.20;88.60
19567;DHT22;9930;49.240;8.548;2023-07-29T02:56:42;21.20;88.50
19567;DHT22;9930;49.240;8.548;2023-07-29T02:59:11;21.20;88.40
19567;DHT22;9930;49.240;8.548;2023-07-29T03:01:37;21.30;88.40
19567;DHT22;9930;49.240;8.548;2023-07-29T03:04:06;21.20;88.50
19567;DHT22;9930;49.240;8.548;2023-07-29T03:06:33;21.20;88.50
19567;DHT22;9930;49.240;8.548;2023-07-29T03:08:59;21.20;88.50
19567;DHT22;9930;49.240;8.548;2023-07-29T03:11:25;21.20;88.50
19567;DHT22;9930;49.240;8.548;2023-07-29T03:13:53;21.20;88.50
19567;DHT22;9930;49.240;8.548;2023-07-29T03:16:18;21.20;88.50
19567;DHT22;9930;49.240;8.548;2023-07-29T03:18:48;21.20;88.50
19567;DHT22;9930;49.240;8.548;2023-07-29T03:21:14;21.20;88.60
19567;DHT22;9930;49.240;8.548;2023-07-29T03:23:40;21.20;88.50
19567;DHT22;9930;49.240;8.548;2023-07-29T03:26:06;21.20;88.50
19567;DHT22;9930;49.240;8.548;2023-07-29T03:28:41;21.20;88.60
19567;DHT22;9930;49.240;8.548;2023-07-29T03:31:08;21.20;88.50
19567;DHT22;9930;49.240;8.548;2023-07-29T03:33:34;21.20;88.50
19567;DHT22;9930;49.240;8.548;2023-07-29T03:36:00;21.20;88.60
19567;DHT22;9930;49.240;8.548;2023-07-29T03:38:28;21.20;88.60
19567;DHT22;9930;49.240;8.548;2023-07-29T03:40:58;21.20;88.60
19567;DHT22;9930;49.240;8.548;2023-07-29T03:43:24;21.20;88.60
19567;DHT22;9930;49.240;8.548;2023-07-29T03:45:52;21.20;88.60
19567;DHT22;9930;49.240;8.548;2023-07-29T03:48:17;21.20;88.70
19567;DHT22;9930;49.240;8.548;2023-07-29T03:50:43;21.20;88.70
19567;DHT22;9930;49.240;8.548;2023-07-29T03:53:09;21.20;88.80
19567;DHT22;9930;49.240;8.548;2023-07-29T03:55:36;21.20;88.80
19567;DHT22;9930;49.240;8.548;2023-07-29T03:58:02;21.20;88.80
19567;DHT22;9930;49.240;8.548;2023-07-29T04:00:27;21.20;88.80
19567;DHT22;9930;49.240;8.548;2023-07-29T04:02:53;21.20;88.80
19567;DHT22;9930;49.240;8.548;2023-07-29T04:05:19;21.20;88.90
19567;DHT22;9930;49.240;8.548;2023-07-29T04:07:47;21.20;89.00
19567;DHT22;9930;49.240;8.548;2023-07-29T04:10:13;21.20;89.00
19567;DHT22;9930;49.240;8.548;2023-07-29T04:12:40;21.20;89.10
19567;DHT22;9930;49.240;8.548;2023-07-29T04:15:10;21.20;89.10
19567;DHT22;9930;49.240;8.548;2023-07-29T04:17:39;21.20;89.10
19567;DHT22;9930;49.240;8.548;2023-07-29T04:20:06;21.30;89.30
19567;DHT22;9930;49.240;8.548;2023-07-29T04:22:36;21.20;89.30
19567;DHT22;9930;49.240;8.548;2023-07-29T04:25:02;21.20;89.30
19567;DHT22;9930;49.240;8.548;2023-07-29T04:27:32;21.20;89.30
19567;DHT22;9930;49.240;8.548;2023-07-29T04:30:00;21.30;89.30
19567;DHT22;9930;49.240;8.548;2023-07-29T04:32:26;21.30;89.20
19567;DHT22;9930;49.240;8.548;2023-07-29T04:34:54;21.30;89.10
19567;DHT22;9930;49.240;8.548;2023-07-29T04:37:19;21.30;89.00
19567;DHT22;9930;49.240;8.548;2023-07-29T04:39:45;21.20;89.00
19567;DHT22;9930;49.240;8.548;2023-07-29T04:42:15;21.20;89.20
19567;DHT22;9930;49.240;8.548;2023-07-29T04:44:41;21.20;89.30
19567;DHT22;9930;49.240;8.548;2023-07-29T04:47:11;21.20;89.40
19567;DHT22;9930;49.240;8.548;2023-07-29T04:49:36;21.20;89.60
19567;DHT22;9930;49.240;8.548;2023-07-29T04:52:02;21.30;89.80
19567;DHT22;9930;49.240;8.548;2023-07-29T04:54:30;21.30;89.80
19567;DHT22;9930;49.240;8.548;2023-07-29T04:56:56;21.30;89.90
19567;DHT22;9930;49.240;8.548;2023-07-29T04:59:24;21.30;89.90
19567;DHT22;9930;49.240;8.548;2023-07-29T05:01:52;21.30;89.80
19567;DHT22;9930;49.240;8.548;2023-07-29T05:04:20;21.30;89.90
19567;DHT22;9930;49.240;8.548;2023-07-29T05:06:50;21.30;90.00
19567;DHT22;9930;49.240;8.548;2023-07-29T05:09:17;21.30;90.00
19567;DHT22;9930;49.240;8.548;2023-07-29T05:11:45;21.40;90.10
19567;DHT22;9930;49.240;8.548;2023-07-29T05:14:13;21.40;90.10
19567;DHT22;9930;49.240;8.548;2023-07-29T05:16:40;21.40;90.10
19567;DHT22;9930;49.240;8.548;2023-07-29T05:19:09;21.40;90.10
19567;DHT22;9930;49.240;8.548;2023-07-29T05:21:37;21.40;90.20
19567;DHT22;9930;49.240;8.548;2023-07-29T05:24:04;21.40;90.20
19567;DHT22;9930;49.240;8.548;2023-07-29T05:26:29;21.40;90.20
19567;DHT22;9930;49.240;8.548;2023-07-29T05:28:55;21.50;90.20
19567;DHT22;9930;49.240;8.548;2023-07-29T05:31:23;21.50;90.30
19567;DHT22;9930;49.240;8.548;2023-07-29T05:33:51;21.50;90.30
19567;DHT22;9930;49.240;8.548;2023-07-29T05:36:17;21.50;90.30
19567;DHT22;9930;49.240;8.548;2023-07-29T05:38:43;21.60;90.30
19567;DHT22;9930;49.240;8.548;2023-07-29T05:41:08;21.60;90.30
19567;DHT22;9930;49.240;8.548;2023-07-29T05:43:36;21.60;90.30
19567;DHT22;9930;49.240;8.548;2023-07-29T05:46:02;21.60;90.30
19567;DHT22;9930;49.240;8.548;2023-07-29T05:48:32;21.70;90.30
19567;DHT22;9930;49.240;8.548;2023-07-29T05:51:03;21.70;90.30
19567;DHT22;9930;49.240;8.548;2023-07-29T05:53:32;21.70;90.30
19567;DHT22;9930;49.240;8.548;2023-07-29T05:55:58;21.70;90.20
19567;DHT22;9930;49.240;8.548;2023-07-29T05:58:26;21.70;90.20
19567;DHT22;9930;49.240;8.548;2023-07-29T06:00:52;21.70;90.30
19567;DHT22;9930;49.240;8.548;2023-07-29T06:03:20;21.80;90.30
19567;DHT22;9930;49.240;8.548;2023-07-29T06:05:48;21.80;90.40
19567;DHT22;9930;49.240;8.548;2023-07-29T06:08:14;21.80;90.40
19567;DHT22;9930;49.240;8.548;2023-07-29T06:10:41;21.80;90.40
19567;DHT22;9930;49.240;8.548;2023-07-29T06:13:06;21.90;90.50
19567;DHT22;9930;49.240;8.548;2023-07-29T06:15:38;21.90;90.50
19567;DHT22;9930;49.240;8.548;2023-07-29T06:18:06;22.00;90.70
19567;DHT22;9930;49.240;8.548;2023-07-29T06:20:32;22.00;90.80
19567;DHT22;9930;49.240;8.548;2023-07-29T06:23:01;22.10;90.90
19567;DHT22;9930;49.240;8.548;2023-07-29T06:25:30;22.20;90.90
19567;DHT22;9930;49.240;8.548;2023-07-29T06:27:57;22.20;90.90
19567;DHT22;9930;49.240;8.548;2023-07-29T06:30:23;22.30;90.90
19567;DHT22;9930;49.240;8.548;2023-07-29T06:32:54;22.40;91.00
19567;DHT22;9930;49.240;8.548;2023-07-29T06:35:20;22.40;90.90
19567;DHT22;9930;49.240;8.548;2023-07-29T06:37:45;22.50;90.90
19567;DHT22;9930;49.240;8.548;2023-07-29T06:40:12;22.60;90.90
19567;DHT22;9930;49.240;8.548;2023-07-29T06:42:38;22.60;90.80
19567;DHT22;9930;49.240;8.548;2023-07-29T06:45:05;22.70;90.70
19567;DHT22;9930;49.240;8.548;2023-07-29T06:47:31;22.70;90.80
19567;DHT22;9930;49.240;8.548;2023-07-29T06:49:56;22.80;91.00
19567;DHT22;9930;49.240;8.548;2023-07-29T06:52:22;22.90;91.00
19567;DHT22;9930;49.240;8.548;2023-07-29T06:54:50;22.90;91.00
19567;DHT22;9930;49.240;8.548;2023-07-29T06:57:18;23.00;90.90
19567;DHT22;9930;49.240;8.548;2023-07-29T06:59:46;23.10;90.70
19567;DHT22;9930;49.240;8.548;2023-07-29T07:02:12;23.10;90.60
19567;DHT22;9930;49.240;8.548;2023-07-29T07:04:38;23.20;90.40
19567;DHT22;9930;49.240;8.548;2023-07-29T07:07:04;23.20;90.40
19567;DHT22;9930;49.240;8.548;2023-07-29T07:09:32;23.30;90.40
19567;DHT22;9930;49.240;8.548;2023-07-29T07:11:57;23.30;90.40
19567;DHT22;9930;49.240;8.548;2023-07-29T07:14:25;23.40;90.50
19567;DHT22;9930;49.240;8.548;2023-07-29T07:16:51;23.40;90.60
19567;DHT22;9930;49.240;8.548;2023-07-29T07:19:19;23.50;90.70
19567;DHT22;9930;49.240;8.548;2023-07-29T07:21:47;23.50;90.60
19567;DHT22;9930;49.240;8.548;2023-07-29T07:24:13;23.60;90.50
19567;DHT22;9930;49.240;8.548;2023-07-29T07:26:38;23.70;90.50
19567;DHT22;9930;49.240;8.548;2023-07-29T07:29:06;23.70;90.40
19567;DHT22;9930;49.240;8.548;2023-07-29T07:31:33;23.90;90.80
19567;DHT22;9930;49.240;8.548;2023-07-29T07:34:02;24.00;91.00
19567;DHT22;9930;49.240;8.548;2023-07-29T07:36:29;24.10;91.00
19567;DHT22;9930;49.240;8.548;2023-07-29T07:38:59;24.20;90.70
19567;DHT22;9930;49.240;8.548;2023-07-29T07:41:25;24.20;90.50
19567;DHT22;9930;49.240;8.548;2023-07-29T07:43:53;24.40;90.40
19567;DHT22;9930;49.240;8.548;2023-07-29T07:46:19;24.40;90.30
19567;DHT22;9930;49.240;8.548;2023-07-29T07:48:45;24.60;90.10
19567;DHT22;9930;49.240;8.548;2023-07-29T07:51:13;24.60;89.40
19567;DHT22;9930;49.240;8.548;2023-07-29T07:53:42;24.60;88.40
19567;DHT22;9930;49.240;8.548;2023-07-29T07:56:11;24.60;88.00
19567;DHT22;9930;49.240;8.548;2023-07-29T07:58:38;24.60;87.30
19567;DHT22;9930;49.240;8.548;2023-07-29T08:01:08;24.60;87.10
19567;DHT22;9930;49.240;8.548;2023-07-29T08:03:35;24.60;86.70
19567;DHT22;9930;49.240;8.548;2023-07-29T08:06:04;24.50;86.80
19567;DHT22;9930;49.240;8.548;2023-07-29T08:08:32;24.50;86.80
19567;DHT22;9930;49.240;8.548;2023-07-29T08:10:57;24.40;87.00
19567;DHT22;9930;49.240;8.548;2023-07-29T08:13:24;24.40;87.20
19567;DHT22;9930;49.240;8.548;2023-07-29T08:15:51;24.30;88.00
19567;DHT22;9930;49.240;8.548;2023-07-29T08:18:18;24.30;87.50
19567;DHT22;9930;49.240;8.548;2023-07-29T08:20:59;24.30;87.90
19567;DHT22;9930;49.240;8.548;2023-07-29T08:23:32;24.30;88.20
19567;DHT22;9930;49.240;8.548;2023-07-29T08:26:00;24.40;88.80
19567;DHT22;9930;49.240;8.548;2023-07-29T08:28:34;24.40;88.80
19567;DHT22;9930;49.240;8.548;2023-07-29T08:31:01;24.50;88.30
19567;DHT22;9930;49.240;8.548;2023-07-29T08:33:28;24.60;88.40
19567;DHT22;9930;49.240;8.548;2023-07-29T08:35:59;24.60;88.10
19567;DHT22;9930;49.240;8.548;2023-07-29T08:38:27;24.60;87.90
19567;DHT22;9930;49.240;8.548;2023-07-29T08:44:06;24.70;87.70
19567;DHT22;9930;49.240;8.548;2023-07-29T08:46:38;24.80;87.30
19567;DHT22;9930;49.240;8.548;2023-07-29T08:49:11;24.80;87.60
19567;DHT22;9930;49.240;8.548;2023-07-29T08:51:47;24.80;87.30
19567;DHT22;9930;49.240;8.548;2023-07-29T08:54:14;24.90;87.30
19567;DHT22;9930;49.240;8.548;2023-07-29T08:56:42;25.00;87.60
19567;DHT22;9930;49.240;8.548;2023-07-29T08:59:09;25.00;87.80
19567;DHT22;9930;49.240;8.548;2023-07-29T09:01:38;25.10;87.90
19567;DHT22;9930;49.240;8.548;2023-07-29T09:04:04;25.30;88.40
19567;DHT22;9930;49.240;8.548;2023-07-29T09:06:33;25.40;88.40
19567;DHT22;9930;49.240;8.548;2023-07-29T09:09:01;25.60;88.00
19567;DHT22;9930;49.240;8.548;2023-07-29T09:11:28;25.70;87.50
19567;DHT22;9930;49.240;8.548;2023-07-29T09:13:54;25.80;86.80
19567;DHT22;9930;49.240;8.548;2023-07-29T09:16:20;25.90;85.80
19567;DHT22;9930;49.240;8.548;2023-07-29T09:18:50;26.00;85.10
19567;DHT22;9930;49.240;8.548;2023-07-29T09:21:17;26.10;84.80
19567;DHT22;9930;49.240;8.548;2023-07-29T09:23:48;26.10;84.90
19567;DHT22;9930;49.240;8.548;2023-07-29T09:26:25;26.20;85.00
19567;DHT22;9930;49.240;8.548;2023-07-29T09:28:56;26.20;84.00
19567;DHT22;9930;49.240;8.548;2023-07-29T09:31:26;26.30;84.40
19567;DHT22;9930;49.240;8.548;2023-07-29T09:34:02;26.40;84.10
19567;DHT22;9930;49.240;8.548;2023-07-29T09:36:31;26.40;84.30
19567;DHT22;9930;49.240;8.548;2023-07-29T09:38:58;26.50;84.00
19567;DHT22;9930;49.240;8.548;2023-07-29T09:41:27;26.60;84.00
19567;DHT22;9930;49.240;8.548;2023-07-29T09:43:57;26.70;84.40
19567;DHT22;9930;49.240;8.548;2023-07-29T09:46:31;26.80;84.00
19567;DHT22;9930;49.240;8.548;2023-07-29T09:49:02;26.90;83.70
19567;DHT22;9930;49.240;8.548;2023-07-29T09:51:29;27.00;83.30
19567;DHT22;9930;49.240;8.548;2023-07-29T09:54:02;27.20;83.10
19567;DHT22;9930;49.240;8.548;2023-07-29T09:56:31;27.20;82.20
19567;DHT22;9930;49.240;8.548;2023-07-29T09:58:59;27.30;81.80
19567;DHT22;9930;49.240;8.548;2023-07-29T10:01:28;27.40;80.70
19567;DHT22;9930;49.240;8.548;2023-07-29T10:03:56;27.40;80.40
19567;DHT22;9930;49.240;8.548;2023-07-29T10:06:22;27.50;79.70
19567;DHT22;9930;49.240;8.548;2023-07-29T10:08:49;27.50;79.20
19567;DHT22;9930;49.240;8.548;2023-07-29T10:11:16;27.50;78.50
19567;DHT22;9930;49.240;8.548;2023-07-29T10:13:46;27.50;78.70
19567;DHT22;9930;49.240;8.548;2023-07-29T10:16:12;27.50;78.40
19567;DHT22;9930;49.240;8.548;2023-07-29T10:18:42;27.50;78.00
19567;DHT22;9930;49.240;8.548;2023-07-29T10:21:10;27.50;78.30
19567;DHT22;9930;49.240;8.548;2023-07-29T10:23:43;27.50;78.30
19567;DHT22;9930;49.240;8.548;2023-07-29T10:26:16;27.50;78.10
19567;DHT22;9930;49.240;8.548;2023-07-29T10:28:47;27.60;79.10
19567;DHT22;9930;49.240;8.548;2023-07-29T10:31:17;27.70;79.10
19567;DHT22;9930;49.240;8.548;2023-07-29T10:33:50;27.80;78.50
19567;DHT22;9930;49.240;8.548;2023-07-29T10:36:16;27.90;77.90
19567;DHT22;9930;49.240;8.548;2023-07-29T10:38:42;27.90;77.20
19567;DHT22;9930;49.240;8.548;2023-07-29T10:41:08;27.90;76.30
19567;DHT22;9930;49.240;8.548;2023-07-29T10:43:35;27.90;76.50
19567;DHT22;9930;49.240;8.548;2023-07-29T10:48:51;27.80;76.60
19567;DHT22;9930;49.240;8.548;2023-07-29T10:51:24;27.90;78.00
19567;DHT22;9930;49.240;8.548;2023-07-29T10:56:34;28.00;76.90
19567;DHT22;9930;49.240;8.548;2023-07-29T11:01:44;28.10;75.10
19567;DHT22;9930;49.240;8.548;2023-07-29T11:20:12;28.70;73.90
19567;DHT22;9930;49.240;8.548;2023-07-29T11:22:39;28.80;74.20
19567;DHT22;9930;49.240;8.548;2023-07-29T11:25:16;28.90;73.60
19567;DHT22;9930;49.240;8.548;2023-07-29T11:27:46;28.90;72.50
19567;DHT22;9930;49.240;8.548;2023-07-29T11:30:15;28.90;71.00
19567;DHT22;9930;49.240;8.548;2023-07-29T11:32:43;28.90;69.80
19567;DHT22;9930;49.240;8.548;2023-07-29T11:35:15;28.70;69.00
19567;DHT22;9930;49.240;8.548;2023-07-29T11:37:48;28.70;69.00
19567;DHT22;9930;49.240;8.548;2023-07-29T11:40:20;28.60;68.90
19567;DHT22;9930;49.240;8.548;2023-07-29T11:42:55;28.50;68.30
19567;DHT22;9930;49.240;8.548;2023-07-29T11:45:23;28.40;68.90
19567;DHT22;9930;49.240;8.548;2023-07-29T11:47:52;28.30;69.80
19567;DHT22;9930;49.240;8.548;2023-07-29T11:50:20;28.30;70.10
19567;DHT22;9930;49.240;8.548;2023-07-29T11:52:46;28.30;70.00
19567;DHT22;9930;49.240;8.548;2023-07-29T11:55:15;28.40;70.40
19567;DHT22;9930;49.240;8.548;2023-07-29T11:57:44;28.40;70.20
19567;DHT22;9930;49.240;8.548;2023-07-29T12:00:12;28.50;70.00
19567;DHT22;9930;49.240;8.548;2023-07-29T12:02:43;28.50;69.40
19567;DHT22;9930;49.240;8.548;2023-07-29T12:05:12;28.50;69.20
19567;DHT22;9930;49.240;8.548;2023-07-29T12:07:40;28.50;68.90
19567;DHT22;9930;49.240;8.548;2023-07-29T12:10:09;28.60;68.40
19567;DHT22;9930;49.240;8.548;2023-07-29T12:12:47;28.50;67.80
19567;DHT22;9930;49.240;8.548;2023-07-29T12:15:25;28.50;66.80
19567;DHT22;9930;49.240;8.548;2023-07-29T12:17:57;28.50;67.10
19567;DHT22;9930;49.240;8.548;2023-07-29T12:20:23;28.50;67.40
19567;DHT22;9930;49.240;8.548;2023-07-29T12:22:57;28.50;67.20
19567;DHT22;9930;49.240;8.548;2023-07-29T12:25:31;28.50;67.00
19567;DHT22;9930;49.240;8.548;2023-07-29T12:28:03;28.60;67.50
19567;DHT22;9930;49.240;8.548;2023-07-29T12:30:32;28.60;67.50
19567;DHT22;9930;49.240;8.548;2023-07-29T12:32:58;28.70;67.50
19567;DHT22;9930;49.240;8.548;2023-07-29T12:35:25;28.70;67.50
19567;DHT22;9930;49.240;8.548;2023-07-29T12:38:04;28.80;67.20
19567;DHT22;9930;49.240;8.548;2023-07-29T12:40:29;28.80;66.80
19567;DHT22;9930;49.240;8.548;2023-07-29T12:42:55;28.80;66.40
19567;DHT22;9930;49.240;8.548;2023-07-29T12:45:24;28.90;66.30
19567;DHT22;9930;49.240;8.548;2023-07-29T12:47:52;28.90;65.80
19567;DHT22;9930;49.240;8.548;2023-07-29T12:50:23;29.00;65.70
19567;DHT22;9930;49.240;8.548;2023-07-29T12:52:51;29.00;65.30
19567;DHT22;9930;49.240;8.548;2023-07-29T12:55:19;29.10;65.20
19567;DHT22;9930;49.240;8.548;2023-07-29T12:57:45;29.10;65.00
19567;DHT22;9930;49.240;8.548;2023-07-29T13:00:11;29.20;65.20
19567;DHT22;9930;49.240;8.548;2023-07-29T13:02:37;29.30;64.80
19567;DHT22;9930;49.240;8.548;2023-07-29T13:05:08;29.30;64.70
19567;DHT22;9930;49.240;8.548;2023-07-29T13:07:39;29.40;64.40
19567;DHT22;9930;49.240;8.548;2023-07-29T13:10:12;29.50;63.70
19567;DHT22;9930;49.240;8.548;2023-07-29T13:12:40;29.60;63.00
19567;DHT22;9930;49.240;8.548;2023-07-29T13:15:07;29.70;62.60
19567;DHT22;9930;49.240;8.548;2023-07-29T13:17:34;29.70;62.20
19567;DHT22;9930;49.240;8.548;2023-07-29T13:20:05;29.70;61.70
19567;DHT22;9930;49.240;8.548;2023-07-29T13:22:31;29.70;61.40
19567;DHT22;9930;49.240;8.548;2023-07-29T13:24:57;29.70;61.30
19567;DHT22;9930;49.240;8.548;2023-07-29T13:27:25;29.80;61.80
19567;DHT22;9930;49.240;8.548;2023-07-29T13:29:54;29.80;61.40
19567;DHT22;9930;49.240;8.548;2023-07-29T13:32:23;29.80;60.90
19567;DHT22;9930;49.240;8.548;2023-07-29T13:34:49;29.90;60.70
19567;DHT22;9930;49.240;8.548;2023-07-29T13:37:14;29.90;60.50
19567;DHT22;9930;49.240;8.548;2023-07-29T13:39:47;30.00;60.00
19567;DHT22;9930;49.240;8.548;2023-07-29T13:42:14;30.00;59.40
19567;DHT22;9930;49.240;8.548;2023-07-29T13:44:44;30.00;59.10
19567;DHT22;9930;49.240;8.548;2023-07-29T13:47:10;30.00;59.00
19567;DHT22;9930;49.240;8.548;2023-07-29T13:49:38;30.00;59.10
19567;DHT22;9930;49.240;8.548;2023-07-29T13:52:14;30.00;59.00
19567;DHT22;9930;49.240;8.548;2023-07-29T13:54:43;29.90;58.50
19567;DHT22;9930;49.240;8.548;2023-07-29T13:57:09;29.90;58.30
19567;DHT22;9930;49.240;8.548;2023-07-29T13:59:39;29.90;58.50
19567;DHT22;9930;49.240;8.548;2023-07-29T14:02:06;29.90;58.60
19567;DHT22;9930;49.240;8.548;2023-07-29T14:04:33;29.90;58.70
19567;DHT22;9930;49.240;8.548;2023-07-29T14:07:01;30.00;58.40
19567;DHT22;9930;49.240;8.548;2023-07-29T14:09:27;30.00;58.50
19567;DHT22;9930;49.240;8.548;2023-07-29T14:11:55;30.10;58.30
19567;DHT22;9930;49.240;8.548;2023-07-29T14:14:20;30.10;57.90
19567;DHT22;9930;49.240;8.548;2023-07-29T14:16:49;30.10;57.70
19567;DHT22;9930;49.240;8.548;2023-07-29T14:19:14;30.10;57.60
19567;DHT22;9930;49.240;8.548;2023-07-29T14:21:41;30.20;57.40
19567;DHT22;9930;49.240;8.548;2023-07-29T14:24:07;30.10;57.00
19567;DHT22;9930;49.240;8.548;2023-07-29T14:26:33;30.10;56.90
19567;DHT22;9930;49.240;8.548;2023-07-29T14:28:58;30.10;56.80
19567;DHT22;9930;49.240;8.548;2023-07-29T14:31:24;30.10;56.80
19567;DHT22;9930;49.240;8.548;2023-07-29T14:33:50;30.10;57.00
19567;DHT22;9930;49.240;8.548;2023-07-29T14:36:16;30.10;56.90
19567;DHT22;9930;49.240;8.548;2023-07-29T14:38:44;30.10;56.70
19567;DHT22;9930;49.240;8.548;2023-07-29T14:41:11;30.10;56.90
19567;DHT22;9930;49.240;8.548;2023-07-29T14:43:42;30.10;56.80
19567;DHT22;9930;49.240;8.548;2023-07-29T14:46:07;30.10;56.70
19567;DHT22;9930;49.240;8.548;2023-07-29T14:48:33;30.10;56.70
19567;DHT22;9930;49.240;8.548;2023-07-29T14:50:59;30.10;56.30
19567;DHT22;9930;49.240;8.548;2023-07-29T14:53:24;30.00;56.00
19567;DHT22;9930;49.240;8.548;2023-07-29T14:55:50;30.00;55.80
19567;DHT22;9930;49.240;8.548;2023-07-29T14:58:16;29.90;55.70
19567;DHT22;9930;49.240;8.548;2023-07-29T15:00:42;29.80;55.70
19567;DHT22;9930;49.240;8.548;2023-07-29T15:03:11;29.80;56.10
19567;DHT22;9930;49.240;8.548;2023-07-29T15:05:39;29.70;56.30
19567;DHT22;9930;49.240;8.548;2023-07-29T15:08:06;29.70;56.30
19567;DHT22;9930;49.240;8.548;2023-07-29T15:10:32;29.80;56.60
19567;DHT22;9930;49.240;8.548;2023-07-29T15:12:57;29.80;56.40
19567;DHT22;9930;49.240;8.548;2023-07-29T15:15:23;29.80;56.30
19567;DHT22;9930;49.240;8.548;2023-07-29T15:17:51;29.80;56.00
19567;DHT22;9930;49.240;8.548;2023-07-29T15:20:17;29.80;55.40
19567;DHT22;9930;49.240;8.548;2023-07-29T15:22:43;29.80;55.50
19567;DHT22;9930;49.240;8.548;2023-07-29T15:25:09;29.70;55.60
19567;DHT22;9930;49.240;8.548;2023-07-29T15:27:35;29.70;55.50
19567;DHT22;9930;49.240;8.548;2023-07-29T15:30:01;29.70;55.60
19567;DHT22;9930;49.240;8.548;2023-07-29T15:32:29;29.80;56.50
19567;DHT22;9930;49.240;8.548;2023-07-29T15:34:57;29.70;55.60
19567;DHT22;9930;49.240;8.548;2023-07-29T15:37:25;29.80;55.70
19567;DHT22;9930;49.240;8.548;2023-07-29T15:39:54;29.80;55.60
19567;DHT22;9930;49.240;8.548;2023-07-29T15:42:24;29.90;55.50
19567;DHT22;9930;49.240;8.548;2023-07-29T15:44:51;29.90;55.60
19567;DHT22;9930;49.240;8.548;2023-07-29T15:47:17;29.90;55.50
19567;DHT22;9930;49.240;8.548;2023-07-29T15:49:45;29.90;55.20
19567;DHT22;9930;49.240;8.548;2023-07-29T15:52:11;29.90;55.00
19567;DHT22;9930;49.240;8.548;2023-07-29T15:54:41;29.90;54.80
19567;DHT22;9930;49.240;8.548;2023-07-29T15:57:11;29.90;55.00
19567;DHT22;9930;49.240;8.548;2023-07-29T15:59:37;29.80;54.90
19567;DHT22;9930;49.240;8.548;2023-07-29T16:02:03;29.80;54.80
19567;DHT22;9930;49.240;8.548;2023-07-29T16:04:33;29.70;54.70
19567;DHT22;9930;49.240;8.548;2023-07-29T16:06:59;29.70;54.70
19567;DHT22;9930;49.240;8.548;2023-07-29T16:09:25;29.60;54.70
19567;DHT22;9930;49.240;8.548;2023-07-29T16:11:53;29.50;54.90
19567;DHT22;9930;49.240;8.548;2023-07-29T16:14:23;29.50;55.00
19567;DHT22;9930;49.240;8.548;2023-07-29T16:16:52;29.40;54.80
19567;DHT22;9930;49.240;8.548;2023-07-29T16:19:27;29.30;55.10
19567;DHT22;9930;49.240;8.548;2023-07-29T16:21:54;29.20;55.10